sensor_id;sensor_type;location;lat;lon;timestamp;P1;durP1;ratioP1;P2;durP2;ratioP2
19842;SDS011;10082;51.038;6.992;2023-03-31T00:01:59;4.05;;;1.40;;
19842;SDS011;10082;51.038;6.992;2023-03-31T00:04:33;4.38;;;1.50;;
19842;SDS011;10082;51.038;6.992;2023-03-31T00:07:00;2.90;;;1.30;;
19842;SDS011;10082;51.038;6.992;2023-03-31T00:09:30;2.97;;;1.50;;
19842;SDS011;10082;51.038;6.992;2023-03-31T00:11:57;5.18;;;1.70;;
19842;SDS011;10082;51.038;6.992;2023-03-31T00:14:25;3.53;;;1.60;;
19842;SDS011;10082;51.038;6.992;2023-03-31T00:16:52;4.57;;;1.60;;
19842;SDS011;10082;51.038;6.992;2023-03-31T00:19:21;6.18;;;2.38;;
19842;SDS011;10082;51.038;6.992;2023-03-31T00:21:50;5.00;;;1.80;;
19842;SDS011;10082;51.038;6.992;2023-03-31T00:24:20;8.48;;;3.30;;
19842;SDS011;10082;51.038;6.992;2023-03-31T00:26:48;7.28;;;3.50;;
19842;SDS011;10082;51.038;6.992;2023-03-31T00:29:15;6.75;;;3.13;;
19842;SDS011;10082;51.038;6.992;2023-03-31T00:31:43;4.93;;;2.00;;
19842;SDS011;10082;51.038;6.992;2023-03-31T00:34:10;5.93;;;2.05;;
19842;SDS011;10082;51.038;6.992;2023-03-31T00:36:37;6.68;;;2.17;;
19842;SDS011;10082;51.038;6.992;2023-03-31T00:39:14;4.88;;;1.90;;
19842;SDS011;10082;51.038;6.992;2023-03-31T00:41:43;7.03;;;2.85;;
19842;SDS011;10082;51.038;6.992;2023-03-31T00:44:12;7.20;;;3.10;;
19842;SDS011;10082;51.038;6.992;2023-03-31T00:46:44;5.20;;;3.10;;
19842;SDS011;10082;51.038;6.992;2023-03-31T00:49:18;6.32;;;3.53;;
19842;SDS011;10082;51.038;6.992;2023-03-31T00:51:51;8.98;;;2.50;;
19842;SDS011;10082;51.038;6.992;2023-03-31T00:54:23;8.32;;;3.63;;
19842;SDS011;10082;51.038;6.992;2023-03-31T00:56:53;7.93;;;4.03;;
19842;SDS011;10082;51.038;6.992;2023-03-31T00:59:23;7.47;;;2.83;;
19842;SDS011;10082;51.038;6.992;2023-03-31T01:01:55;11.40;;;3.90;;
19842;SDS011;10082;51.038;6.992;2023-03-31T01:04:27;9.65;;;5.07;;
19842;SDS011;10082;51.038;6.992;2023-03-31T01:07:01;12.35;;;5.50;;
19842;SDS011;10082;51.038;6.992;2023-03-31T01:09:35;11.38;;;4.50;;
19842;SDS011;10082;51.038;6.992;2023-03-31T01:12:05;7.53;;;4.05;;
19842;SDS011;10082;51.038;6.992;2023-03-31T01:14:35;10.52;;;4.90;;
19842;SDS011;10082;51.038;6.992;2023-03-31T01:17:02;8.23;;;2.97;;
19842;SDS011;10082;51.038;6.992;2023-03-31T01:19:38;5.57;;;2.47;;
19842;SDS011;10082;51.038;6.992;2023-03-31T01:22:30;3.60;;;1.70;;
19842;SDS011;10082;51.038;6.992;2023-03-31T01:28:49;5.95;;;2.22;;
19842;SDS011;10082;51.038;6.992;2023-03-31T01:31:47;4.63;;;1.40;;
19842;SDS011;10082;51.038;6.992;2023-03-31T01:40:59;5.85;;;1.98;;
19842;SDS011;10082;51.038;6.992;2023-03-31T01:43:43;6.57;;;1.85;;
19842;SDS011;10082;51.038;6.992;2023-03-31T01:46:19;3.20;;;1.48;;
19842;SDS011;10082;51.038;6.992;2023-03-31T01:48:53;7.10;;;1.77;;
19842;SDS011;10082;51.038;6.992;2023-03-31T01:51:31;6.00;;;1.75;;
19842;SDS011;10082;51.038;6.992;2023-03-31T01:54:02;7.82;;;1.92;;
19842;SDS011;10082;51.038;6.992;2023-03-31T01:56:36;4.20;;;1.40;;
19842;SDS011;10082;51.038;6.992;2023-03-31T01:59:09;4.57;;;1.40;;
19842;SDS011;10082;51.038;6.992;2023-03-31T02:01:40;3.60;;;1.45;;
19842;SDS011;10082;51.038;6.992;2023-03-31T02:04:14;7.47;;;1.70;;
19842;SDS011;10082;51.038;6.992;2023-03-31T02:06:46;3.75;;;1.30;;
19842;SDS011;10082;51.038;6.992;2023-03-31T02:09:24;4.60;;;1.20;;
19842;SDS011;10082;51.038;6.992;2023-03-31T02:11:56;2.70;;;1.38;;
19842;SDS011;10082;51.038;6.992;2023-03-31T02:14:26;4.35;;;1.40;;
19842;SDS011;10082;51.038;6.992;2023-03-31T02:16:56;2.45;;;1.48;;
19842;SDS011;10082;51.038;6.992;2023-03-31T02:19:28;4.30;;;1.30;;
19842;SDS011;10082;51.038;6.992;2023-03-31T02:21:59;4.68;;;1.55;;
19842;SDS011;10082;51.038;6.992;2023-03-31T02:24:29;5.68;;;1.83;;
19842;SDS011;10082;51.038;6.992;2023-03-31T02:27:02;4.00;;;1.75;;
19842;SDS011;10082;51.038;6.992;2023-03-31T02:29:34;4.15;;;1.27;;
19842;SDS011;10082;51.038;6.992;2023-03-31T02:32:02;4.60;;;1.67;;
19842;SDS011;10082;51.038;6.992;2023-03-31T02:34:37;6.78;;;1.83;;
19842;SDS011;10082;51.038;6.992;2023-03-31T02:37:04;5.13;;;1.73;;
19842;SDS011;10082;51.038;6.992;2023-03-31T02:39:42;6.28;;;1.60;;
19842;SDS011;10082;51.038;6.992;2023-03-31T02:42:14;4.20;;;1.90;;
19842;SDS011;10082;51.038;6.992;2023-03-31T02:44:41;6.43;;;2.15;;
19842;SDS011;10082;51.038;6.992;2023-03-31T02:47:10;7.35;;;2.05;;
19842;SDS011;10082;51.038;6.992;2023-03-31T02:49:43;5.65;;;2.15;;
19842;SDS011;10082;51.038;6.992;2023-03-31T02:52:32;5.80;;;2.20;;
19842;SDS011;10082;51.038;6.992;2023-03-31T02:55:15;8.73;;;2.03;;
19842;SDS011;10082;51.038;6.992;2023-03-31T02:58:04;6.45;;;2.17;;
19842;SDS011;10082;51.038;6.992;2023-03-31T03:03:37;6.10;;;2.58;;
19842;SDS011;10082;51.038;6.992;2023-03-31T03:06:17;9.15;;;2.90;;
19842;SDS011;10082;51.038;6.992;2023-03-31T03:09:03;10.63;;;3.00;;
19842;SDS011;10082;51.038;6.992;2023-03-31T03:11:43;6.95;;;2.70;;
19842;SDS011;10082;51.038;6.992;2023-03-31T03:14:20;10.18;;;3.20;;
19842;SDS011;10082;51.038;6.992;2023-03-31T03:16:53;8.82;;;2.97;;
19842;SDS011;10082;51.038;6.992;2023-03-31T03:19:29;6.65;;;2.78;;
19842;SDS011;10082;51.038;6.992;2023-03-31T03:21:57;9.25;;;3.13;;
19842;SDS011;10082;51.038;6.992;2023-03-31T03:24:25;8.88;;;3.22;;
19842;SDS011;10082;51.038;6.992;2023-03-31T03:26:53;8.38;;;3.03;;
19842;SDS011;10082;51.038;6.992;2023-03-31T03:29:23;7.88;;;2.92;;
19842;SDS011;10082;51.038;6.992;2023-03-31T03:31:51;8.38;;;2.80;;
19842;SDS011;10082;51.038;6.992;2023-03-31T03:34:19;8.30;;;3.20;;
19842;SDS011;10082;51.038;6.992;2023-03-31T03:36:49;8.13;;;2.97;;
19842;SDS011;10082;51.038;6.992;2023-03-31T03:39:17;7.38;;;3.03;;
19842;SDS011;10082;51.038;6.992;2023-03-31T03:41:44;4.68;;;2.20;;
19842;SDS011;10082;51.038;6.992;2023-03-31T03:44:15;7.00;;;3.00;;
19842;SDS011;10082;51.038;6.992;2023-03-31T03:46:44;4.97;;;2.80;;
19842;SDS011;10082;51.038;6.992;2023-03-31T03:49:11;10.88;;;2.97;;
19842;SDS011;10082;51.038;6.992;2023-03-31T03:51:39;6.82;;;2.50;;
19842;SDS011;10082;51.038;6.992;2023-03-31T03:54:06;8.27;;;2.53;;
19842;SDS011;10082;51.038;6.992;2023-03-31T03:56:33;8.10;;;2.67;;
19842;SDS011;10082;51.038;6.992;2023-03-31T03:59:01;7.25;;;2.55;;
19842;SDS011;10082;51.038;6.992;2023-03-31T04:01:28;6.32;;;2.38;;
19842;SDS011;10082;51.038;6.992;2023-03-31T04:03:57;9.10;;;2.50;;
19842;SDS011;10082;51.038;6.992;2023-03-31T04:06:25;7.70;;;2.72;;
19842;SDS011;10082;51.038;6.992;2023-03-31T04:08:52;8.15;;;2.70;;
19842;SDS011;10082;51.038;6.992;2023-03-31T04:11:20;5.20;;;2.03;;
19842;SDS011;10082;51.038;6.992;2023-03-31T04:13:47;5.82;;;2.65;;
19842;SDS011;10082;51.038;6.992;2023-03-31T04:16:14;5.65;;;2.13;;
19842;SDS011;10082;51.038;6.992;2023-03-31T04:18:42;7.45;;;2.28;;
19842;SDS011;10082;51.038;6.992;2023-03-31T04:21:12;8.90;;;2.38;;
19842;SDS011;10082;51.038;6.992;2023-03-31T04:23:47;7.55;;;2.30;;
19842;SDS011;10082;51.038;6.992;2023-03-31T04:26:23;10.80;;;2.92;;
19842;SDS011;10082;51.038;6.992;2023-03-31T04:28:55;6.50;;;2.22;;
19842;SDS011;10082;51.038;6.992;2023-03-31T04:31:25;11.20;;;2.83;;
19842;SDS011;10082;51.038;6.992;2023-03-31T04:33:55;6.43;;;2.60;;
19842;SDS011;10082;51.038;6.992;2023-03-31T04:39:07;6.93;;;2.65;;
19842;SDS011;10082;51.038;6.992;2023-03-31T04:41:36;5.57;;;2.45;;
19842;SDS011;10082;51.038;6.992;2023-03-31T04:44:06;6.55;;;2.80;;
19842;SDS011;10082;51.038;6.992;2023-03-31T04:46:34;8.07;;;2.60;;
19842;SDS011;10082;51.038;6.992;2023-03-31T04:49:02;7.07;;;2.28;;
19842;SDS011;10082;51.038;6.992;2023-03-31T04:51:31;4.95;;;2.45;;
19842;SDS011;10082;51.038;6.992;2023-03-31T04:53:58;6.88;;;2.25;;
19842;SDS011;10082;51.038;6.992;2023-03-31T04:56:26;5.15;;;2.00;;
19842;SDS011;10082;51.038;6.992;2023-03-31T04:58:53;5.00;;;2.13;;
19842;SDS011;10082;51.038;6.992;2023-03-31T05:01:20;4.07;;;1.95;;
19842;SDS011;10082;51.038;6.992;2023-03-31T05:03:49;3.67;;;1.90;;
19842;SDS011;10082;51.038;6.992;2023-03-31T05:06:16;8.35;;;2.45;;
19842;SDS011;10082;51.038;6.992;2023-03-31T05:08:45;5.82;;;1.88;;
19842;SDS011;10082;51.038;6.992;2023-03-31T05:11:12;4.63;;;1.90;;
19842;SDS011;10082;51.038;6.992;2023-03-31T05:13:40;6.20;;;1.95;;
19842;SDS011;10082;51.038;6.992;2023-03-31T05:16:09;5.47;;;1.80;;
19842;SDS011;10082;51.038;6.992;2023-03-31T05:18:38;5.60;;;1.80;;
19842;SDS011;10082;51.038;6.992;2023-03-31T05:21:09;6.55;;;2.20;;
19842;SDS011;10082;51.038;6.992;2023-03-31T05:23:45;6.20;;;1.77;;
19842;SDS011;10082;51.038;6.992;2023-03-31T05:26:13;8.10;;;2.33;;
19842;SDS011;10082;51.038;6.992;2023-03-31T05:28:41;4.05;;;1.83;;
19842;SDS011;10082;51.038;6.992;2023-03-31T05:31:12;5.78;;;2.33;;
19842;SDS011;10082;51.038;6.992;2023-03-31T05:33:39;4.72;;;1.75;;
19842;SDS011;10082;51.038;6.992;2023-03-31T05:36:07;4.38;;;1.73;;
19842;SDS011;10082;51.038;6.992;2023-03-31T05:38:35;6.10;;;1.88;;
19842;SDS011;10082;51.038;6.992;2023-03-31T05:41:04;4.38;;;1.50;;
19842;SDS011;10082;51.038;6.992;2023-03-31T05:43:33;3.63;;;1.48;;
19842;SDS011;10082;51.038;6.992;2023-03-31T05:46:00;3.95;;;1.50;;
19842;SDS011;10082;51.038;6.992;2023-03-31T05:48:28;4.50;;;1.88;;
19842;SDS011;10082;51.038;6.992;2023-03-31T05:50:58;4.85;;;1.70;;
19842;SDS011;10082;51.038;6.992;2023-03-31T05:53:27;4.18;;;1.50;;
19842;SDS011;10082;51.038;6.992;2023-03-31T05:55:56;3.30;;;1.60;;
19842;SDS011;10082;51.038;6.992;2023-03-31T05:58:26;3.78;;;1.75;;
19842;SDS011;10082;51.038;6.992;2023-03-31T06:01:00;3.63;;;1.60;;
19842;SDS011;10082;51.038;6.992;2023-03-31T06:03:30;3.83;;;1.60;;
19842;SDS011;10082;51.038;6.992;2023-03-31T06:05:58;4.07;;;1.65;;
19842;SDS011;10082;51.038;6.992;2023-03-31T06:08:26;6.43;;;5.55;;
19842;SDS011;10082;51.038;6.992;2023-03-31T06:10:53;3.25;;;1.52;;
19842;SDS011;10082;51.038;6.992;2023-03-31T06:13:20;2.58;;;1.50;;
19842;SDS011;10082;51.038;6.992;2023-03-31T06:15:55;2.95;;;1.45;;
19842;SDS011;10082;51.038;6.992;2023-03-31T06:18:23;3.97;;;1.73;;
19842;SDS011;10082;51.038;6.992;2023-03-31T06:20:52;3.50;;;1.50;;
19842;SDS011;10082;51.038;6.992;2023-03-31T06:23:19;4.35;;;1.48;;
19842;SDS011;10082;51.038;6.992;2023-03-31T06:25:47;1.77;;;1.25;;
19842;SDS011;10082;51.038;6.992;2023-03-31T06:28:16;1.48;;;0.93;;
19842;SDS011;10082;51.038;6.992;2023-03-31T06:30:48;3.15;;;1.45;;
19842;SDS011;10082;51.038;6.992;2023-03-31T06:33:17;3.92;;;1.00;;
19842;SDS011;10082;51.038;6.992;2023-03-31T06:35:45;2.70;;;1.30;;
19842;SDS011;10082;51.038;6.992;2023-03-31T06:38:18;2.30;;;1.20;;
19842;SDS011;10082;51.038;6.992;2023-03-31T06:40:47;3.08;;;1.20;;
19842;SDS011;10082;51.038;6.992;2023-03-31T06:43:16;2.30;;;0.95;;
19842;SDS011;10082;51.038;6.992;2023-03-31T06:45:44;1.63;;;1.00;;
19842;SDS011;10082;51.038;6.992;2023-03-31T06:48:12;1.00;;;0.70;;
19842;SDS011;10082;51.038;6.992;2023-03-31T06:50:41;1.27;;;0.68;;
19842;SDS011;10082;51.038;6.992;2023-03-31T06:53:08;1.98;;;0.95;;
19842;SDS011;10082;51.038;6.992;2023-03-31T06:55:36;1.55;;;0.90;;
19842;SDS011;10082;51.038;6.992;2023-03-31T06:58:05;2.42;;;0.80;;
19842;SDS011;10082;51.038;6.992;2023-03-31T07:00:32;1.20;;;0.73;;
19842;SDS011;10082;51.038;6.992;2023-03-31T07:02:59;1.55;;;0.90;;
19842;SDS011;10082;51.038;6.992;2023-03-31T07:05:28;1.90;;;0.65;;
19842;SDS011;10082;51.038;6.992;2023-03-31T07:07:59;0.63;;;0.50;;
19842;SDS011;10082;51.038;6.992;2023-03-31T07:10:30;0.85;;;0.50;;
19842;SDS011;10082;51.038;6.992;2023-03-31T07:12:58;1.75;;;0.68;;
19842;SDS011;10082;51.038;6.992;2023-03-31T07:15:26;1.38;;;0.73;;
19842;SDS011;10082;51.038;6.992;2023-03-31T07:17:54;0.98;;;0.55;;
19842;SDS011;10082;51.038;6.992;2023-03-31T07:20:27;1.17;;;0.65;;
19842;SDS011;10082;51.038;6.992;2023-03-31T07:22:55;0.75;;;0.47;;
19842;SDS011;10082;51.038;6.992;2023-03-31T07:25:26;1.08;;;0.60;;
19842;SDS011;10082;51.038;6.992;2023-03-31T07:27:54;0.60;;;0.55;;
19842;SDS011;10082;51.038;6.992;2023-03-31T07:30:21;1.10;;;0.60;;
19842;SDS011;10082;51.038;6.992;2023-03-31T07:32:53;0.80;;;0.57;;
19842;SDS011;10082;51.038;6.992;2023-03-31T07:35:21;2.95;;;0.68;;
19842;SDS011;10082;51.038;6.992;2023-03-31T07:37:49;0.75;;;0.60;;
19842;SDS011;10082;51.038;6.992;2023-03-31T07:40:23;1.52;;;0.60;;
19842;SDS011;10082;51.038;6.992;2023-03-31T07:43:01;1.35;;;0.73;;
19842;SDS011;10082;51.038;6.992;2023-03-31T07:45:29;1.60;;;0.80;;
19842;SDS011;10082;51.038;6.992;2023-03-31T07:47:57;1.05;;;0.60;;
19842;SDS011;10082;51.038;6.992;2023-03-31T07:50:24;1.10;;;0.70;;
19842;SDS011;10082;51.038;6.992;2023-03-31T07:52:55;1.08;;;0.70;;
19842;SDS011;10082;51.038;6.992;2023-03-31T07:55:28;1.00;;;0.60;;
19842;SDS011;10082;51.038;6.992;2023-03-31T07:57:58;0.60;;;0.60;;
19842;SDS011;10082;51.038;6.992;2023-03-31T08:00:31;0.60;;;0.40;;
19842;SDS011;10082;51.038;6.992;2023-03-31T08:02:59;2.15;;;0.70;;
19842;SDS011;10082;51.038;6.992;2023-03-31T08:05:27;2.20;;;0.60;;
19842;SDS011;10082;51.038;6.992;2023-03-31T08:07:57;0.70;;;0.70;;
19842;SDS011;10082;51.038;6.992;2023-03-31T08:10:25;1.27;;;0.75;;
19842;SDS011;10082;51.038;6.992;2023-03-31T08:12:54;0.82;;;0.63;;
19842;SDS011;10082;51.038;6.992;2023-03-31T08:15:22;1.30;;;0.68;;
19842;SDS011;10082;51.038;6.992;2023-03-31T08:17:49;1.13;;;0.80;;
19842;SDS011;10082;51.038;6.992;2023-03-31T08:20:17;1.23;;;0.70;;
19842;SDS011;10082;51.038;6.992;2023-03-31T08:22:45;1.05;;;0.70;;
19842;SDS011;10082;51.038;6.992;2023-03-31T08:25:12;1.45;;;0.70;;
19842;SDS011;10082;51.038;6.992;2023-03-31T08:27:40;1.30;;;0.65;;
19842;SDS011;10082;51.038;6.992;2023-03-31T08:30:10;1.48;;;0.90;;
19842;SDS011;10082;51.038;6.992;2023-03-31T08:32:41;1.70;;;1.00;;
19842;SDS011;10082;51.038;6.992;2023-03-31T08:35:09;2.17;;;0.90;;
19842;SDS011;10082;51.038;6.992;2023-03-31T08:37:37;0.93;;;0.77;;
19842;SDS011;10082;51.038;6.992;2023-03-31T08:40:09;1.60;;;0.93;;
19842;SDS011;10082;51.038;6.992;2023-03-31T08:42:52;2.60;;;0.80;;
19842;SDS011;10082;51.038;6.992;2023-03-31T08:45:26;2.58;;;1.50;;
19842;SDS011;10082;51.038;6.992;2023-03-31T08:47:59;3.95;;;2.13;;
19842;SDS011;10082;51.038;6.992;2023-03-31T08:50:31;7.68;;;3.25;;
19842;SDS011;10082;51.038;6.992;2023-03-31T08:53:03;6.80;;;3.33;;
19842;SDS011;10082;51.038;6.992;2023-03-31T08:55:35;4.72;;;2.30;;
19842;SDS011;10082;51.038;6.992;2023-03-31T08:58:12;4.30;;;1.73;;
19842;SDS011;10082;51.038;6.992;2023-03-31T09:01:01;7.78;;;3.50;;
19842;SDS011;10082;51.038;6.992;2023-03-31T09:03:35;4.68;;;1.83;;
19842;SDS011;10082;51.038;6.992;2023-03-31T09:06:10;4.30;;;1.70;;
19842;SDS011;10082;51.038;6.992;2023-03-31T09:08:42;4.57;;;1.70;;
19842;SDS011;10082;51.038;6.992;2023-03-31T09:11:12;5.88;;;2.25;;
19842;SDS011;10082;51.038;6.992;2023-03-31T09:13:56;5.53;;;2.00;;
19842;SDS011;10082;51.038;6.992;2023-03-31T09:16:39;4.20;;;2.05;;
19842;SDS011;10082;51.038;6.992;2023-03-31T09:19:17;3.47;;;1.77;;
19842;SDS011;10082;51.038;6.992;2023-03-31T09:21:48;4.15;;;1.58;;
19842;SDS011;10082;51.038;6.992;2023-03-31T09:24:19;5.55;;;1.52;;
19842;SDS011;10082;51.038;6.992;2023-03-31T09:26:50;6.72;;;2.00;;
19842;SDS011;10082;51.038;6.992;2023-03-31T09:29:21;6.20;;;1.80;;
19842;SDS011;10082;51.038;6.992;2023-03-31T09:31:55;2.85;;;1.33;;
19842;SDS011;10082;51.038;6.992;2023-03-31T09:34:28;3.33;;;1.60;;
19842;SDS011;10082;51.038;6.992;2023-03-31T09:36:57;3.95;;;1.60;;
19842;SDS011;10082;51.038;6.992;2023-03-31T09:39:25;8.95;;;2.20;;
19842;SDS011;10082;51.038;6.992;2023-03-31T09:41:54;6.78;;;1.58;;
19842;SDS011;10082;51.038;6.992;2023-03-31T09:44:25;8.50;;;1.73;;
19842;SDS011;10082;51.038;6.992;2023-03-31T09:46:57;6.38;;;2.15;;
19842;SDS011;10082;51.038;6.992;2023-03-31T09:49:28;4.65;;;1.80;;
19842;SDS011;10082;51.038;6.992;2023-03-31T09:52:00;4.93;;;1.83;;
19842;SDS011;10082;51.038;6.992;2023-03-31T09:54:35;4.30;;;1.70;;
19842;SDS011;10082;51.038;6.992;2023-03-31T09:57:12;5.75;;;1.50;;
19842;SDS011;10082;51.038;6.992;2023-03-31T09:59:41;5.20;;;1.35;;
19842;SDS011;10082;51.038;6.992;2023-03-31T10:02:20;6.22;;;1.65;;
19842;SDS011;10082;51.038;6.992;2023-03-31T10:05:17;5.22;;;1.60;;
19842;SDS011;10082;51.038;6.992;2023-03-31T10:07:54;5.50;;;1.70;;
19842;SDS011;10082;51.038;6.992;2023-03-31T10:10:43;6.88;;;1.88;;
19842;SDS011;10082;51.038;6.992;2023-03-31T10:13:13;3.72;;;1.70;;
19842;SDS011;10082;51.038;6.992;2023-03-31T10:15:45;6.65;;;2.15;;
19842;SDS011;10082;51.038;6.992;2023-03-31T10:18:15;6.32;;;2.00;;
19842;SDS011;10082;51.038;6.992;2023-03-31T10:20:47;4.97;;;1.75;;
19842;SDS011;10082;51.038;6.992;2023-03-31T10:23:17;3.92;;;1.90;;
19842;SDS011;10082;51.038;6.992;2023-03-31T10:25:50;4.47;;;1.70;;
19842;SDS011;10082;51.038;6.992;2023-03-31T10:28:18;7.70;;;2.05;;
19842;SDS011;10082;51.038;6.992;2023-03-31T10:30:48;6.35;;;1.80;;
19842;SDS011;10082;51.038;6.992;2023-03-31T10:33:19;5.47;;;1.80;;
19842;SDS011;10082;51.038;6.992;2023-03-31T10:35:49;6.45;;;2.08;;
19842;SDS011;10082;51.038;6.992;2023-03-31T10:38:23;6.43;;;1.98;;
19842;SDS011;10082;51.038;6.992;2023-03-31T10:40:55;5.97;;;1.98;;
19842;SDS011;10082;51.038;6.992;2023-03-31T10:43:25;5.60;;;2.42;;
19842;SDS011;10082;51.038;6.992;2023-03-31T10:45:55;3.40;;;1.55;;
19842;SDS011;10082;51.038;6.992;2023-03-31T10:48:30;7.47;;;1.70;;
19842;SDS011;10082;51.038;6.992;2023-03-31T10:50:59;5.35;;;1.83;;
19842;SDS011;10082;51.038;6.992;2023-03-31T10:53:37;5.70;;;1.77;;
19842;SDS011;10082;51.038;6.992;2023-03-31T10:59:07;6.32;;;1.75;;
19842;SDS011;10082;51.038;6.992;2023-03-31T11:01:56;7.47;;;1.90;;
19842;SDS011;10082;51.038;6.992;2023-03-31T11:04:47;7.88;;;1.80;;
19842;SDS011;10082;51.038;6.992;2023-03-31T11:07:28;8.73;;;2.40;;
19842;SDS011;10082;51.038;6.992;2023-03-31T11:10:18;4.78;;;1.90;;
19842;SDS011;10082;51.038;6.992;2023-03-31T11:12:57;6.53;;;2.10;;
19842;SDS011;10082;51.038;6.992;2023-03-31T11:15:29;5.15;;;1.52;;
19842;SDS011;10082;51.038;6.992;2023-03-31T11:18:11;2.85;;;1.00;;
19842;SDS011;10082;51.038;6.992;2023-03-31T11:21:00;6.15;;;1.60;;
19842;SDS011;10082;51.038;6.992;2023-03-31T11:23:39;3.30;;;1.52;;
19842;SDS011;10082;51.038;6.992;2023-03-31T11:26:09;4.32;;;1.35;;
19842;SDS011;10082;51.038;6.992;2023-03-31T11:28:44;2.17;;;1.08;;
19842;SDS011;10082;51.038;6.992;2023-03-31T11:31:31;2.63;;;2.33;;
19842;SDS011;10082;51.038;6.992;2023-03-31T11:34:08;2.38;;;1.10;;
19842;SDS011;10082;51.038;6.992;2023-03-31T11:36:58;3.85;;;1.30;;
19842;SDS011;10082;51.038;6.992;2023-03-31T11:40:15;2.50;;;0.85;;
19842;SDS011;10082;51.038;6.992;2023-03-31T11:42:58;2.63;;;1.20;;
19842;SDS011;10082;51.038;6.992;2023-03-31T11:45:31;2.83;;;1.38;;
19842;SDS011;10082;51.038;6.992;2023-03-31T11:48:02;2.50;;;1.27;;
19842;SDS011;10082;51.038;6.992;2023-03-31T11:50:36;2.30;;;1.10;;
19842;SDS011;10082;51.038;6.992;2023-03-31T11:53:10;3.53;;;1.17;;
19842;SDS011;10082;51.038;6.992;2023-03-31T11:55:43;4.18;;;1.60;;
19842;SDS011;10082;51.038;6.992;2023-03-31T11:58:14;4.90;;;1.90;;
19842;SDS011;10082;51.038;6.992;2023-03-31T12:00:47;4.18;;;1.42;;
19842;SDS011;10082;51.038;6.992;2023-03-31T12:03:19;2.97;;;1.58;;
19842;SDS011;10082;51.038;6.992;2023-03-31T12:05:50;4.68;;;1.52;;
19842;SDS011;10082;51.038;6.992;2023-03-31T12:08:25;3.47;;;1.65;;
19842;SDS011;10082;51.038;6.992;2023-03-31T12:10:59;4.47;;;1.85;;
19842;SDS011;10082;51.038;6.992;2023-03-31T12:13:37;6.15;;;2.28;;
19842;SDS011;10082;51.038;6.992;2023-03-31T12:16:10;5.93;;;2.45;;
19842;SDS011;10082;51.038;6.992;2023-03-31T12:18:43;6.45;;;2.20;;
19842;SDS011;10082;51.038;6.992;2023-03-31T12:21:18;6.88;;;2.80;;
19842;SDS011;10082;51.038;6.992;2023-03-31T12:23:49;5.97;;;2.40;;
19842;SDS011;10082;51.038;6.992;2023-03-31T12:26:22;6.75;;;2.88;;
19842;SDS011;10082;51.038;6.992;2023-03-31T12:29:04;5.97;;;2.55;;
19842;SDS011;10082;51.038;6.992;2023-03-31T12:31:40;8.65;;;2.72;;
19842;SDS011;10082;51.038;6.992;2023-03-31T12:34:13;5.10;;;2.38;;
19842;SDS011;10082;51.038;6.992;2023-03-31T12:36:51;7.93;;;2.50;;
19842;SDS011;10082;51.038;6.992;2023-03-31T12:39:36;6.72;;;2.67;;
19842;SDS011;10082;51.038;6.992;2023-03-31T12:45:26;7.10;;;2.53;;
19842;SDS011;10082;51.038;6.992;2023-03-31T12:47:58;8.45;;;2.33;;
19842;SDS011;10082;51.038;6.992;2023-03-31T12:50:40;5.95;;;1.83;;
19842;SDS011;10082;51.038;6.992;2023-03-31T12:53:22;4.18;;;1.75;;
19842;SDS011;10082;51.038;6.992;2023-03-31T12:55:56;6.63;;;1.90;;
19842;SDS011;10082;51.038;6.992;2023-03-31T13:01:17;5.38;;;2.08;;
19842;SDS011;10082;51.038;6.992;2023-03-31T13:03:50;5.93;;;2.30;;
19842;SDS011;10082;51.038;6.992;2023-03-31T13:09:38;6.57;;;2.10;;
19842;SDS011;10082;51.038;6.992;2023-03-31T13:12:16;6.60;;;2.10;;
19842;SDS011;10082;51.038;6.992;2023-03-31T13:14:47;4.25;;;1.88;;
19842;SDS011;10082;51.038;6.992;2023-03-31T13:17:25;4.95;;;1.48;;
19842;SDS011;10082;51.038;6.992;2023-03-31T13:22:42;3.63;;;1.38;;
19842;SDS011;10082;51.038;6.992;2023-03-31T13:31:04;3.35;;;1.65;;
19842;SDS011;10082;51.038;6.992;2023-03-31T13:33:39;3.50;;;1.70;;
19842;SDS011;10082;51.038;6.992;2023-03-31T13:39:27;3.83;;;1.42;;
19842;SDS011;10082;51.038;6.992;2023-03-31T13:42:10;3.75;;;1.50;;
19842;SDS011;10082;51.038;6.992;2023-03-31T13:45:03;5.18;;;1.70;;
19842;SDS011;10082;51.038;6.992;2023-03-31T13:47:52;4.40;;;1.50;;
19842;SDS011;10082;51.038;6.992;2023-03-31T13:56:34;2.97;;;1.70;;
19842;SDS011;10082;51.038;6.992;2023-03-31T13:59:13;3.50;;;1.45;;
19842;SDS011;10082;51.038;6.992;2023-03-31T14:02:01;3.13;;;1.42;;
19842;SDS011;10082;51.038;6.992;2023-03-31T14:07:57;3.78;;;1.23;;
19842;SDS011;10082;51.038;6.992;2023-03-31T14:10:28;4.82;;;1.65;;
19842;SDS011;10082;51.038;6.992;2023-03-31T14:13:06;4.57;;;1.73;;
19842;SDS011;10082;51.038;6.992;2023-03-31T14:15:36;5.63;;;2.00;;
19842;SDS011;10082;51.038;6.992;2023-03-31T14:18:05;3.38;;;1.50;;
19842;SDS011;10082;51.038;6.992;2023-03-31T14:20:39;3.08;;;1.42;;
19842;SDS011;10082;51.038;6.992;2023-03-31T14:23:25;4.47;;;1.85;;
19842;SDS011;10082;51.038;6.992;2023-03-31T14:26:03;4.85;;;1.98;;
19842;SDS011;10082;51.038;6.992;2023-03-31T14:28:40;4.20;;;1.60;;
19842;SDS011;10082;51.038;6.992;2023-03-31T14:31:18;5.15;;;1.95;;
19842;SDS011;10082;51.038;6.992;2023-03-31T14:34:01;3.10;;;1.20;;
19842;SDS011;10082;51.038;6.992;2023-03-31T14:36:42;3.28;;;1.25;;
19842;SDS011;10082;51.038;6.992;2023-03-31T14:39:15;3.67;;;1.23;;
19842;SDS011;10082;51.038;6.992;2023-03-31T14:41:49;2.03;;;1.00;;
19842;SDS011;10082;51.038;6.992;2023-03-31T14:44:18;3.03;;;1.20;;
19842;SDS011;10082;51.038;6.992;2023-03-31T14:46:46;1.23;;;0.68;;
19842;SDS011;10082;51.038;6.992;2023-03-31T14:49:15;2.80;;;1.30;;
19842;SDS011;10082;51.038;6.992;2023-03-31T14:51:47;2.58;;;0.90;;
19842;SDS011;10082;51.038;6.992;2023-03-31T14:54:15;3.00;;;1.00;;
19842;SDS011;10082;51.038;6.992;2023-03-31T14:56:44;2.42;;;1.10;;
19842;SDS011;10082;51.038;6.992;2023-03-31T14:59:15;1.58;;;0.98;;
19842;SDS011;10082;51.038;6.992;2023-03-31T15:01:47;2.45;;;1.20;;
19842;SDS011;10082;51.038;6.992;2023-03-31T15:04:16;3.97;;;1.20;;
19842;SDS011;10082;51.038;6.992;2023-03-31T15:06:47;4.10;;;1.50;;
19842;SDS011;10082;51.038;6.992;2023-03-31T15:09:17;3.35;;;1.38;;
19842;SDS011;10082;51.038;6.992;2023-03-31T15:11:48;2.95;;;1.30;;
19842;SDS011;10082;51.038;6.992;2023-03-31T15:14:21;2.83;;;1.13;;
19842;SDS011;10082;51.038;6.992;2023-03-31T15:16:48;3.13;;;1.20;;
19842;SDS011;10082;51.038;6.992;2023-03-31T15:19:16;2.92;;;1.27;;
19842;SDS011;10082;51.038;6.992;2023-03-31T15:21:45;2.88;;;1.40;;
19842;SDS011;10082;51.038;6.992;2023-03-31T15:24:22;3.42;;;1.40;;
19842;SDS011;10082;51.038;6.992;2023-03-31T15:26:51;4.30;;;1.50;;
19842;SDS011;10082;51.038;6.992;2023-03-31T15:29:28;3.20;;;1.55;;
19842;SDS011;10082;51.038;6.992;2023-03-31T15:32:01;4.30;;;1.67;;
19842;SDS011;10082;51.038;6.992;2023-03-31T15:34:31;2.58;;;1.30;;
19842;SDS011;10082;51.038;6.992;2023-03-31T15:37:03;6.70;;;1.92;;
19842;SDS011;10082;51.038;6.992;2023-03-31T15:39:32;5.07;;;1.85;;
19842;SDS011;10082;51.038;6.992;2023-03-31T15:42:03;5.00;;;1.77;;
19842;SDS011;10082;51.038;6.992;2023-03-31T15:44:36;5.20;;;1.50;;
19842;SDS011;10082;51.038;6.992;2023-03-31T15:47:06;5.40;;;1.77;;
19842;SDS011;10082;51.038;6.992;2023-03-31T15:49:45;8.35;;;2.10;;
19842;SDS011;10082;51.038;6.992;2023-03-31T15:52:20;6.20;;;1.80;;
19842;SDS011;10082;51.038;6.992;2023-03-31T15:54:51;8.65;;;2.08;;
19842;SDS011;10082;51.038;6.992;2023-03-31T15:57:18;5.05;;;1.80;;
19842;SDS011;10082;51.038;6.992;2023-03-31T15:59:47;7.95;;;2.88;;
19842;SDS011;10082;51.038;6.992;2023-03-31T16:02:16;8.50;;;2.55;;
19842;SDS011;10082;51.038;6.992;2023-03-31T16:04:46;6.00;;;2.20;;
19842;SDS011;10082;51.038;6.992;2023-03-31T16:07:16;5.72;;;2.08;;
19842;SDS011;10082;51.038;6.992;2023-03-31T16:09:49;4.95;;;1.98;;